Flight Number: EUR2373 Duration: 2:15
Departure: Copenhagen Kastrup (EKCH) at 18:15 Distance: 823 Nm
Arrival: Bordeaux-Merignac (LFBD) at 20:30 Equipment: A321

Weather Information
Koebenhavn / Kastrup, Denmark (EKCH) 55-37N 012-39E 5M Nov 19, 2017 - 10:50 PM EST / 2017.11.20 0350 UTC
Wind: from the W (260 degrees) at 2 MPH (2 KT):0
Visibility: greater than 7 mile(s):0 Temperature: 28 F (-2 C) Dew Point: 26 F (-3 C) Relative Humidity: 92% Pressure (altimeter): 29.80 in. Hg (1009 hPa)
ob: EKCH 200350Z 26002KT CAVOK M02/M03 Q1009 R04L/710156 R04R/710175 R12/710160 NOSIG cycle: 4
Sunrise: 07:00 Sunset: 14:49 (UTC)

Bordeaux / Merignac, France (LFBD) 44-50N 000-42W 61M Nov 19, 2017 - 10:30 PM EST / 2017.11.20 0330 UTC
Wind: from the ESE (120 degrees) at 2 MPH (2 KT):0
Visibility: 1 mile(s):0 Weather: mist Temperature: 35 F (2 C) Dew Point: 33 F (1 C) Relative Humidity: 93% Pressure (altimeter): 30.27 in. Hg (1025 hPa)
ob: LFBD 200330Z AUTO 12002KT 3100 1400 R23/P2300 R05/P2300 R29/2100N BR NSC 02/01 Q1025 TEMPO 0300 FG VV/// cycle: 3
Sunrise: 07:11 Sunset: 16:26 (UTC)

TAF:2017/11/19 18:21 TAF TAF LFBD 191700Z 1918/2024 VRB02KT CAVOK BECMG 1919/1921 4000 BR TEMPO 1921/2009 0400 FG VV/// BECMG 2009/2011 CAVOK BECMG 2019/2021 4000 BR TX12/2014Z TN00/2007Z

Previous Pireps for this route
Date Aircraft Flight time Fuel used Landing rate On time
2015-03-31A32102.2915195-159Yes
2015-05-07A32102.2814305-39Yes
2016-04-30A32102.1913634-303Yes
(pireps marked green are flown by you)

Route map